KCGI

Cape Girardeau Regional Airport

Cape Girardeau, Missouri, USA
KCGI 202320Z 2100/2124 07004KT P6SM FEW250 FM211400 09010KT P6SM SCT250
Issued Valid From Valid To
Apr-20 @ 23:20 UTC
(4 hours ago)
Apr-21 @ 00:00 UTC
(4 hours ago)
Apr-22 @ 00:00 UTC
(in 20 hours)
Apr-21 @ 00:00 to Apr-21 @ 14:00
KCGI 202320Z 2100/2124 07004KT P6SM FEW250
Wind Visibility Clouds
70° at 4 knots Greater than 6 miles
  • Few at 25,000' AGL
From Apr-21 @ 14:00 to Apr-22 @ 00:00
FM211400 09010KT P6SM SCT250
Wind Visibility Clouds
90° at 10 knots Greater than 6 miles
  • Scattered at 25,000' AGL
KCGI 202320Z 2100/2124 07004KT P6SM FEW250 FM211400 09010KT P6SM SCT250
Issued Apr-20 @ 23:20 UTC
(4 hours ago)
Valid From Apr-21 @ 00:00 UTC
(4 hours ago)
Valid To Apr-22 @ 00:00 UTC
(in 20 hours)
Apr-21 @ 00:00 - Apr-21 @ 14:00
Wind Visibility
70° at 4 knots Greater than 6 miles
Clouds
  • Few at 25,000' AGL
From Apr-21 @ 14:00 - Apr-22 @ 00:00
Wind Visibility
90° at 10 knots Greater than 6 miles
Clouds
  • Scattered at 25,000' AGL